createdAt,value
2018-03-27T00:02:19.837Z,72.33
2018-03-27T00:04:47.302Z,73.76
2018-03-27T00:07:14.747Z,74.32
2018-03-27T00:09:42.251Z,74.29
2018-03-27T00:12:09.710Z,73.75
2018-03-27T00:14:37.149Z,74.11
2018-03-27T00:17:04.589Z,73.46
2018-03-27T00:19:32.081Z,73.83
2018-03-27T00:21:59.544Z,74.96
2018-03-27T00:24:26.987Z,74.69
2018-03-27T00:27:01.049Z,75.64
2018-03-27T00:29:40.390Z,76.70
2018-03-27T00:32:19.793Z,76.17
2018-03-27T00:34:58.990Z,76.35
2018-03-27T00:37:38.524Z,75.95
2018-03-27T00:40:17.622Z,75.77
2018-03-27T00:42:54.012Z,74.49
2018-03-27T00:45:21.453Z,75.05
2018-03-27T00:47:48.893Z,74.93
2018-03-27T00:50:16.348Z,75.33
2018-03-27T00:52:43.789Z,76.24
2018-03-27T00:55:11.239Z,76.37
2018-03-27T00:57:38.725Z,76.60
2018-03-27T01:00:06.168Z,76.82
2018-03-27T01:02:33.605Z,77.29
2018-03-27T01:05:06.665Z,76.66
2018-03-27T01:07:34.109Z,76.97
2018-03-27T01:10:01.551Z,76.41
2018-03-27T01:12:29.013Z,76.08
2018-03-27T01:14:56.461Z,75.86
2018-03-27T01:17:23.922Z,76.12
2018-03-27T01:19:51.531Z,76.87
2018-03-27T01:22:19.016Z,76.53
2018-03-27T01:24:46.461Z,77.60
2018-03-27T01:27:14.132Z,78.24
2018-03-27T01:29:41.570Z,78.80
2018-03-27T01:32:09.046Z,78.68
2018-03-27T01:34:36.721Z,78.31
2018-03-27T01:37:04.160Z,77.90
2018-03-27T01:39:31.596Z,78.85
2018-03-27T01:41:59.265Z,78.38
2018-03-27T01:44:26.718Z,78.81
2018-03-27T01:46:54.164Z,79.01
2018-03-27T01:49:21.645Z,78.81
2018-03-27T01:51:49.089Z,78.91
2018-03-27T01:54:16.530Z,78.68
2018-03-27T01:56:44.190Z,79.16
2018-03-27T01:59:11.625Z,79.67
2018-03-27T02:01:39.066Z,79.49
2018-03-27T02:04:06.537Z,79.32
2018-03-27T02:06:33.981Z,79.69
2018-03-27T02:09:01.449Z,79.86
2018-03-27T02:11:34.958Z,79.68
2018-03-27T02:14:08.011Z,79.96
2018-03-27T02:16:41.453Z,79.60
2018-03-27T02:19:14.608Z,79.42
2018-03-27T02:21:41.519Z,79.33
2018-03-27T02:24:08.977Z,79.46
2018-03-27T02:26:36.453Z,79.36
2018-03-27T02:29:04.142Z,79.80
2018-03-27T02:31:31.582Z,80.37
2018-03-27T02:33:59.025Z,80.62
2018-03-27T02:36:26.502Z,80.69
2018-03-27T02:38:53.942Z,80.18
2018-03-27T02:41:21.390Z,79.73
2018-03-27T02:43:48.934Z,80.54
2018-03-27T02:46:16.378Z,80.81
2018-03-27T02:48:43.826Z,80.54
2018-03-27T02:51:11.285Z,80.66
2018-03-27T02:53:38.769Z,80.31
2018-03-27T02:56:06.216Z,80.77
2018-03-27T02:58:33.978Z,81.29
2018-03-27T03:01:01.439Z,81.55
2018-03-27T03:03:28.889Z,80.77
2018-03-27T03:05:56.550Z,80.84
2018-03-27T03:08:24.015Z,80.66
2018-03-27T03:10:51.457Z,80.93
2018-03-27T03:13:19.101Z,80.81
2018-03-27T03:15:46.536Z,80.53
2018-03-27T03:18:13.987Z,80.15
2018-03-27T03:20:41.625Z,80.77
2018-03-27T03:23:09.067Z,81.13
2018-03-27T03:25:36.517Z,81.39
2018-03-27T03:28:04.085Z,81.38
2018-03-27T03:30:31.527Z,81.78
2018-03-27T03:32:58.974Z,81.88
2018-03-27T03:35:26.450Z,82.19
2018-03-27T03:37:53.914Z,82.06
2018-03-27T03:40:21.378Z,81.49
2018-03-27T03:42:48.977Z,81.34
2018-03-27T03:45:16.420Z,81.60
2018-03-27T03:47:43.877Z,81.47
2018-03-27T03:50:11.478Z,81.28
2018-03-27T03:52:38.929Z,81.11
2018-03-27T03:55:06.382Z,81.20
2018-03-27T03:57:34.077Z,80.93
2018-03-27T04:00:01.514Z,80.74
2018-03-27T04:02:28.954Z,80.62
2018-03-27T04:04:56.455Z,81.07
2018-03-27T04:07:23.930Z,81.21
2018-03-27T04:09:51.397Z,81.15
2018-03-27T04:12:19.001Z,80.67
2018-03-27T04:14:46.469Z,80.86
2018-03-27T04:17:13.931Z,80.46
2018-03-27T04:19:41.397Z,80.49
2018-03-27T04:22:08.849Z,79.96
2018-03-27T04:24:36.289Z,80.97
2018-03-27T04:27:03.757Z,80.61
2018-03-27T04:29:31.197Z,80.30
2018-03-27T04:31:58.862Z,80.65
2018-03-27T04:34:26.316Z,80.84
2018-03-27T04:36:53.787Z,82.60
2018-03-27T04:39:21.257Z,81.45
2018-03-27T04:41:48.742Z,81.15
2018-03-27T04:44:16.393Z,81.40
2018-03-27T04:46:43.837Z,80.52
2018-03-27T04:49:11.294Z,80.64
2018-03-27T04:51:38.761Z,80.37
2018-03-27T04:54:06.214Z,80.84
2018-03-27T04:56:33.829Z,80.89
2018-03-27T04:59:01.274Z,82.74
2018-03-27T05:01:28.733Z,81.95
2018-03-27T05:03:56.205Z,82.06
2018-03-27T05:06:23.655Z,82.10
2018-03-27T05:08:51.293Z,82.64
2018-03-27T05:11:18.828Z,83.40
2018-03-27T05:13:46.273Z,82.76
2018-03-27T05:16:13.738Z,81.59
2018-03-27T05:18:41.191Z,81.73
2018-03-27T05:21:08.994Z,82.08
2018-03-27T05:23:36.443Z,81.76
2018-03-27T05:26:03.885Z,81.45
2018-03-27T05:28:31.354Z,81.37
2018-03-27T05:30:58.798Z,81.83
2018-03-27T05:33:26.396Z,82.10
2018-03-27T05:35:53.837Z,82.11
2018-03-27T05:38:21.277Z,81.74
2018-03-27T05:40:48.746Z,81.57
2018-03-27T05:43:16.201Z,81.49
2018-03-27T05:45:43.845Z,81.43
2018-03-27T05:48:11.289Z,81.99
2018-03-27T05:50:38.745Z,81.91
2018-03-27T05:53:06.222Z,81.97
2018-03-27T05:55:33.669Z,81.92
2018-03-27T05:58:01.302Z,81.54
2018-03-27T06:00:28.751Z,80.69
2018-03-27T06:02:56.198Z,80.23
2018-03-27T06:05:23.666Z,80.15
2018-03-27T06:07:51.118Z,79.51
2018-03-27T06:10:18.759Z,79.55
2018-03-27T06:12:46.197Z,78.50
2018-03-27T06:15:13.642Z,78.11
2018-03-27T06:17:41.113Z,78.31
2018-03-27T06:20:08.565Z,78.86
2018-03-27T06:22:36.516Z,78.92
2018-03-27T06:25:03.965Z,78.77
2018-03-27T06:27:31.431Z,78.57
2018-03-27T06:29:58.913Z,79.00
2018-03-27T06:32:26.354Z,78.92
2018-03-27T06:34:53.929Z,78.59
2018-03-27T06:37:21.364Z,78.37
2018-03-27T06:39:48.806Z,78.17
2018-03-27T06:42:16.310Z,77.68
2018-03-27T06:44:43.757Z,77.83
2018-03-27T06:47:11.562Z,78.25
2018-03-27T06:49:39.025Z,77.41
2018-03-27T06:52:06.481Z,76.07
2018-03-27T06:54:33.965Z,75.73
2018-03-27T06:57:01.434Z,76.00
2018-03-27T06:59:28.908Z,75.43
2018-03-27T07:01:56.391Z,73.71
2018-03-27T07:04:23.832Z,73.20
2018-03-27T07:06:51.349Z,71.52
2018-03-27T07:09:18.764Z,70.53
2018-03-27T07:11:46.448Z,71.17
2018-03-27T07:14:13.881Z,71.10
2018-03-27T07:16:41.330Z,68.92
2018-03-27T07:19:08.840Z,69.51
2018-03-27T07:21:36.283Z,68.86
2018-03-27T07:24:04.077Z,69.55
2018-03-27T07:26:31.517Z,69.90
2018-03-27T07:28:58.965Z,70.74
2018-03-27T07:31:26.425Z,70.95
2018-03-27T07:33:53.869Z,69.74
2018-03-27T07:36:21.349Z,67.45
2018-03-27T07:38:48.797Z,66.38
2018-03-27T07:41:16.237Z,66.54
2018-03-27T07:43:43.697Z,66.40
2018-03-27T07:46:11.154Z,65.12
2018-03-27T07:48:38.634Z,64.39
2018-03-27T07:51:06.074Z,65.37
2018-03-27T07:53:33.514Z,65.26
2018-03-27T07:56:01.057Z,66.10
2018-03-27T07:58:28.505Z,65.09
2018-03-27T08:00:56.154Z,65.32
2018-03-27T08:03:23.587Z,65.76
2018-03-27T08:05:51.562Z,65.16
2018-03-27T08:08:19.053Z,64.44
2018-03-27T08:10:46.496Z,64.46
2018-03-27T08:13:14.364Z,63.64
2018-03-27T08:15:41.834Z,64.47
2018-03-27T08:18:09.278Z,63.93
2018-03-27T08:20:36.745Z,63.42
2018-03-27T08:23:04.196Z,62.56
2018-03-27T08:25:31.825Z,63.85
2018-03-27T08:27:59.290Z,62.49
2018-03-27T08:30:26.734Z,62.13
2018-03-27T08:32:54.203Z,62.66
2018-03-27T08:35:21.669Z,61.75
2018-03-27T08:37:49.391Z,62.58
2018-03-27T08:40:16.833Z,61.37
2018-03-27T08:42:44.286Z,62.78
2018-03-27T08:45:11.773Z,60.86
2018-03-27T08:47:39.236Z,60.81
2018-03-27T08:50:06.851Z,61.15
2018-03-27T08:52:34.306Z,61.07
2018-03-27T08:55:01.785Z,60.86
2018-03-27T08:57:29.257Z,60.48
2018-03-27T08:59:56.709Z,59.69
2018-03-27T09:02:24.225Z,59.85
2018-03-27T09:04:51.671Z,60.24
2018-03-27T09:07:19.119Z,59.18
2018-03-27T09:09:46.604Z,58.71
2018-03-27T09:12:14.053Z,57.38
2018-03-27T09:14:41.561Z,57.57
2018-03-27T09:17:09.071Z,57.78
2018-03-27T09:19:36.521Z,57.58
2018-03-27T09:22:04.012Z,58.10
2018-03-27T09:24:31.465Z,57.61
2018-03-27T09:26:59.181Z,57.27
2018-03-27T09:29:26.635Z,57.10
2018-03-27T09:31:54.082Z,57.84
2018-03-27T09:34:21.557Z,57.21
2018-03-27T09:36:49.018Z,57.06
2018-03-27T09:39:16.637Z,57.40
2018-03-27T09:41:44.086Z,58.35
2018-03-27T09:44:11.577Z,58.88
2018-03-27T09:46:39.055Z,56.80
2018-03-27T09:49:06.592Z,58.42
2018-03-27T09:51:34.189Z,58.29
2018-03-27T09:54:01.677Z,58.24
2018-03-27T09:56:29.129Z,58.97
2018-03-27T09:58:56.622Z,59.12
2018-03-27T10:01:33.997Z,58.99
2018-03-27T10:04:01.652Z,60.07
2018-03-27T10:06:29.143Z,59.86
2018-03-27T10:08:56.692Z,60.26
2018-03-27T10:11:24.125Z,61.32
2018-03-27T10:13:51.577Z,61.03
2018-03-27T10:16:19.060Z,61.58
2018-03-27T10:18:46.508Z,61.46
2018-03-27T10:21:14.005Z,61.33
2018-03-27T10:23:41.493Z,61.49
2018-03-27T10:26:08.944Z,59.39
2018-03-27T10:28:36.484Z,58.07
2018-03-27T10:31:03.971Z,58.56
2018-03-27T10:33:31.462Z,56.96
2018-03-27T10:35:58.950Z,57.30
2018-03-27T10:38:26.405Z,57.68
2018-03-27T10:40:53.878Z,57.91
2018-03-27T10:43:21.357Z,58.38
2018-03-27T10:45:48.849Z,58.72
2018-03-27T10:48:16.317Z,59.63
2018-03-27T10:50:43.806Z,59.47
2018-03-27T10:53:11.294Z,59.78
2018-03-27T10:55:38.775Z,61.54
2018-03-27T10:58:06.414Z,61.89
2018-03-27T11:00:33.871Z,64.44
2018-03-27T11:03:01.341Z,65.77
2018-03-27T11:05:28.841Z,66.44
2018-03-27T11:07:56.310Z,68.08
2018-03-27T11:10:24.193Z,66.45
2018-03-27T11:12:51.661Z,66.73
2018-03-27T11:15:19.139Z,65.88
2018-03-27T11:17:46.630Z,64.90
2018-03-27T11:20:14.084Z,63.07
2018-03-27T11:22:41.725Z,63.40
2018-03-27T11:25:09.177Z,61.48
2018-03-27T11:27:36.653Z,60.44
2018-03-27T11:30:04.137Z,59.94
2018-03-27T11:32:31.595Z,59.69
2018-03-27T11:34:59.185Z,58.24
2018-03-27T11:37:26.637Z,58.91
2018-03-27T11:39:54.093Z,57.13
2018-03-27T11:42:21.572Z,57.78
2018-03-27T11:44:49.021Z,57.18
2018-03-27T11:47:16.510Z,57.33
2018-03-27T11:49:43.964Z,56.83
2018-03-27T11:52:11.425Z,56.43
2018-03-27T11:54:38.915Z,55.71
2018-03-27T11:57:06.369Z,54.51
2018-03-27T11:59:34.161Z,53.25
2018-03-27T12:02:01.640Z,53.09
2018-03-27T12:04:29.121Z,53.11
2018-03-27T12:06:56.610Z,52.45
2018-03-27T12:09:24.067Z,52.08
2018-03-27T12:11:51.733Z,51.37
2018-03-27T12:14:19.209Z,51.12
2018-03-27T12:16:46.657Z,51.58
2018-03-27T12:19:14.140Z,51.52
2018-03-27T12:21:41.598Z,51.79
2018-03-27T12:24:09.183Z,51.94
2018-03-27T12:26:36.685Z,51.49
2018-03-27T12:29:04.138Z,50.95
2018-03-27T12:31:31.609Z,51.23
2018-03-27T12:33:59.069Z,50.00
2018-03-27T12:36:26.737Z,50.53
2018-03-27T12:38:54.194Z,50.47
2018-03-27T12:41:21.645Z,49.69
2018-03-27T12:43:49.198Z,49.47
2018-03-27T12:46:20.950Z,49.94
2018-03-27T12:48:49.101Z,50.37
2018-03-27T12:51:16.590Z,50.45
2018-03-27T12:53:44.040Z,50.57
2018-03-27T12:56:11.517Z,50.52
2018-03-27T12:58:38.972Z,49.56
2018-03-27T13:01:06.553Z,50.36
2018-03-27T13:03:34.001Z,50.66
2018-03-27T13:06:01.450Z,51.40
2018-03-27T13:08:28.945Z,51.21
2018-03-27T13:10:56.397Z,50.98
2018-03-27T13:13:24.001Z,51.66
2018-03-27T13:15:51.453Z,51.80
2018-03-27T13:18:18.905Z,52.59
2018-03-27T13:20:46.377Z,52.89
2018-03-27T13:23:13.826Z,57.90
2018-03-27T13:25:41.466Z,59.63
2018-03-27T13:28:08.941Z,61.40
2018-03-27T13:30:36.391Z,62.89
2018-03-27T13:33:03.861Z,62.22
2018-03-27T13:35:31.309Z,62.28
2018-03-27T13:37:58.811Z,60.60
2018-03-27T13:40:26.261Z,60.90
2018-03-27T13:42:53.729Z,61.08
2018-03-27T13:45:21.206Z,61.38
2018-03-27T13:47:48.653Z,61.55
2018-03-27T13:50:16.149Z,60.65
2018-03-27T13:52:43.622Z,61.43
2018-03-27T13:55:11.078Z,61.59
2018-03-27T13:57:38.560Z,61.54
2018-03-27T14:00:08.682Z,60.48
2018-03-27T14:02:36.162Z,59.39
2018-03-27T14:05:03.629Z,58.92
2018-03-27T14:07:31.081Z,57.86
2018-03-27T14:09:58.554Z,58.33
2018-03-27T14:12:26.008Z,57.14
2018-03-27T14:14:53.738Z,57.20
2018-03-27T14:17:22.102Z,56.83
2018-03-27T14:19:49.566Z,56.94
2018-03-27T14:22:17.057Z,56.32
2018-03-27T14:24:44.536Z,56.53
2018-03-27T14:27:12.206Z,56.36
2018-03-27T14:29:39.657Z,56.39
2018-03-27T14:32:07.133Z,58.67
2018-03-27T14:34:34.679Z,59.22
2018-03-27T14:37:02.164Z,59.19
2018-03-27T14:39:30.078Z,58.91
2018-03-27T14:41:57.538Z,58.45
2018-03-27T14:44:24.981Z,57.91
2018-03-27T14:46:52.523Z,58.01
2018-03-27T14:49:20.014Z,57.98
2018-03-27T14:51:47.819Z,57.40
2018-03-27T14:54:15.273Z,57.35
2018-03-27T14:56:42.726Z,55.24
2018-03-27T14:59:10.202Z,55.50
2018-03-27T15:01:37.664Z,56.75
2018-03-27T15:04:05.271Z,60.88
2018-03-27T15:06:32.726Z,61.88
2018-03-27T15:09:00.180Z,62.18
2018-03-27T15:11:27.661Z,62.33
2018-03-27T15:13:55.121Z,62.69
2018-03-27T15:16:22.913Z,62.31
2018-03-27T15:18:50.373Z,62.50
2018-03-27T15:21:17.836Z,62.57
2018-03-27T15:23:45.305Z,61.90
2018-03-27T15:26:12.756Z,61.91
2018-03-27T15:28:40.335Z,61.54
2018-03-27T15:31:08.007Z,61.46
2018-03-27T15:33:35.497Z,61.57
2018-03-27T15:36:02.950Z,61.28
2018-03-27T15:38:30.400Z,60.71
2018-03-27T15:40:57.880Z,61.21
2018-03-27T15:43:25.333Z,61.50
2018-03-27T15:45:52.787Z,59.78
2018-03-27T15:48:20.270Z,60.54
2018-03-27T15:50:47.736Z,61.92
2018-03-27T15:53:15.225Z,62.90
2018-03-27T15:55:42.753Z,62.47
2018-03-27T15:58:10.181Z,63.34
2018-03-27T16:00:37.655Z,64.82
2018-03-27T16:03:05.193Z,64.57
2018-03-27T16:05:32.678Z,63.58
2018-03-27T16:08:00.137Z,63.27
2018-03-27T16:10:27.637Z,62.55
2018-03-27T16:12:55.107Z,62.45
2018-03-27T16:15:22.581Z,63.51
2018-03-27T16:17:50.285Z,63.46
2018-03-27T16:20:17.733Z,63.24
2018-03-27T16:22:45.190Z,63.41
2018-03-27T16:25:12.670Z,63.87
2018-03-27T16:27:40.134Z,64.66
2018-03-27T16:30:07.666Z,64.58
2018-03-27T16:32:35.130Z,65.71
2018-03-27T16:35:02.582Z,65.64
2018-03-27T16:37:30.063Z,65.17
2018-03-27T16:39:57.553Z,66.17
2018-03-27T16:42:25.170Z,66.26
2018-03-27T16:44:52.638Z,65.77
2018-03-27T16:47:20.114Z,66.99
2018-03-27T16:49:47.602Z,67.11
2018-03-27T16:52:15.188Z,67.72
2018-03-27T16:54:42.721Z,68.65
2018-03-27T16:57:10.169Z,68.94
2018-03-27T16:59:37.629Z,70.32
2018-03-27T17:02:05.117Z,72.98
2018-03-27T17:04:32.573Z,72.53
2018-03-27T17:07:00.137Z,73.04
2018-03-27T17:09:27.594Z,73.05
2018-03-27T17:11:55.044Z,73.09
2018-03-27T17:14:22.553Z,73.09
2018-03-27T17:16:49.998Z,75.69
2018-03-27T17:19:17.933Z,74.96
2018-03-27T17:21:45.374Z,76.54
2018-03-27T17:24:12.823Z,77.36
2018-03-27T17:26:40.297Z,76.75
2018-03-27T17:29:07.745Z,78.01
2018-03-27T17:31:35.381Z,78.23
2018-03-27T17:34:02.830Z,79.12
2018-03-27T17:36:30.295Z,79.32
2018-03-27T17:38:57.765Z,79.13
2018-03-27T17:41:25.213Z,79.73
2018-03-27T17:43:53.382Z,79.88
2018-03-27T17:46:21.189Z,80.25
2018-03-27T17:48:48.637Z,79.33
2018-03-27T17:51:16.104Z,79.18
2018-03-27T17:53:43.561Z,79.54
2018-03-27T17:56:11.142Z,79.73
2018-03-27T17:58:38.589Z,81.21
2018-03-27T18:01:06.054Z,80.88
2018-03-27T18:03:33.538Z,80.45
2018-03-27T18:06:01.006Z,80.59
2018-03-27T18:08:28.507Z,81.45
2018-03-27T18:10:55.966Z,82.83
2018-03-27T18:13:23.437Z,82.87
2018-03-27T18:15:50.916Z,83.55
2018-03-27T18:18:18.362Z,83.71
2018-03-27T18:20:46.098Z,84.69
2018-03-27T18:23:13.546Z,84.97
2018-03-27T18:25:40.996Z,85.52
2018-03-27T18:28:08.469Z,86.23
2018-03-27T18:30:36.476Z,86.46
2018-03-27T18:33:04.072Z,86.96
2018-03-27T18:35:33.374Z,87.76
2018-03-27T18:38:00.848Z,88.47
2018-03-27T18:40:28.358Z,87.50
2018-03-27T18:42:55.820Z,87.52
2018-03-27T18:45:23.660Z,87.85
2018-03-27T18:47:51.118Z,88.53
2018-03-27T18:50:18.861Z,88.07
2018-03-27T18:52:46.338Z,87.45
2018-03-27T18:55:13.785Z,87.39
2018-03-27T18:57:41.278Z,87.54
2018-03-27T19:00:08.736Z,87.98
2018-03-27T19:02:36.198Z,88.41
2018-03-27T19:05:03.683Z,87.65
2018-03-27T19:07:31.134Z,87.57
2018-03-27T19:09:58.624Z,87.28
2018-03-27T19:12:26.079Z,87.59
2018-03-27T19:14:54.575Z,88.37
2018-03-27T19:17:22.056Z,88.76
2018-03-27T19:19:49.518Z,87.86
2018-03-27T19:22:17.006Z,88.47
2018-03-27T19:24:44.454Z,88.95
2018-03-27T19:27:11.898Z,88.44
2018-03-27T19:29:39.387Z,88.70
2018-03-27T19:32:06.862Z,88.21
2018-03-27T19:34:34.489Z,88.82
2018-03-27T19:37:01.950Z,88.95
2018-03-27T19:39:29.407Z,88.50
2018-03-27T19:41:57.691Z,87.80
2018-03-27T19:44:25.995Z,88.10
2018-03-27T19:46:53.487Z,89.08
2018-03-27T19:49:25.094Z,89.45
2018-03-27T19:51:53.535Z,89.11
2018-03-27T19:54:21.004Z,87.76
2018-03-27T19:56:48.523Z,88.68
2018-03-27T19:59:15.991Z,88.34
2018-03-27T20:01:43.433Z,88.24
2018-03-27T20:04:11.023Z,89.37
2018-03-27T20:06:39.683Z,89.16
2018-03-27T20:09:07.733Z,88.65
2018-03-27T20:11:35.205Z,89.17
2018-03-27T20:14:02.826Z,89.11
2018-03-27T20:16:31.071Z,88.55
2018-03-27T20:18:58.546Z,89.12
2018-03-27T20:21:26.001Z,89.45
2018-03-27T20:23:53.486Z,89.46
2018-03-27T20:26:20.934Z,89.31
2018-03-27T20:28:48.665Z,89.54
2018-03-27T20:31:16.137Z,89.30
2018-03-27T20:33:43.610Z,88.88
2018-03-27T20:36:11.078Z,89.13
2018-03-27T20:38:38.537Z,88.66
2018-03-27T20:41:06.138Z,88.22
2018-03-27T20:43:33.586Z,88.64
2018-03-27T20:46:01.046Z,88.42
2018-03-27T20:48:28.526Z,88.29
2018-03-27T20:50:55.982Z,88.62
2018-03-27T20:53:23.486Z,87.86
2018-03-27T20:55:50.930Z,88.05
2018-03-27T20:58:18.390Z,87.62
2018-03-27T21:00:47.134Z,87.49
2018-03-27T21:03:16.021Z,88.18
2018-03-27T21:05:43.574Z,87.76
2018-03-27T21:08:11.030Z,88.26
2018-03-27T21:10:38.493Z,88.46
2018-03-27T21:13:05.961Z,87.99
2018-03-27T21:15:33.418Z,87.55
2018-03-27T21:18:01.021Z,87.29
2018-03-27T21:20:28.474Z,87.24
2018-03-27T21:22:59.211Z,87.80
2018-03-27T21:25:26.706Z,87.19
2018-03-27T21:27:54.161Z,88.44
2018-03-27T21:30:21.645Z,87.62
2018-03-27T21:32:49.130Z,88.14
2018-03-27T21:35:16.609Z,88.25
2018-03-27T21:37:48.124Z,88.56
2018-03-27T21:40:16.059Z,88.09
2018-03-27T21:42:43.822Z,88.49
2018-03-27T21:45:11.273Z,88.49
2018-03-27T21:47:38.724Z,88.83
2018-03-27T21:50:06.210Z,88.48
2018-03-27T21:52:33.658Z,88.36
2018-03-27T21:55:03.858Z,88.38
2018-03-27T21:57:31.314Z,88.09
2018-03-27T21:59:58.753Z,88.11
2018-03-27T22:02:26.221Z,89.40
2018-03-27T22:04:53.689Z,89.59
2018-03-27T22:07:21.378Z,88.95
2018-03-27T22:09:48.832Z,90.18
2018-03-27T22:12:16.291Z,90.55
2018-03-27T22:14:43.753Z,90.93
2018-03-27T22:17:11.204Z,91.09
2018-03-27T22:19:38.668Z,90.56
2018-03-27T22:22:06.137Z,91.09
2018-03-27T22:24:33.627Z,91.12
2018-03-27T22:27:01.066Z,90.79
2018-03-27T22:29:28.713Z,91.31
2018-03-27T22:31:56.145Z,91.00
2018-03-27T22:34:23.586Z,91.53
2018-03-27T22:36:51.073Z,92.24
2018-03-27T22:39:18.565Z,91.57
2018-03-27T22:41:46.002Z,91.68
2018-03-27T22:44:13.770Z,90.27
2018-03-27T22:46:41.183Z,90.92
2018-03-27T22:49:08.617Z,91.33
2018-03-27T22:51:36.086Z,91.80
2018-03-27T22:54:03.581Z,92.62
2018-03-27T22:56:31.034Z,91.95
2018-03-27T22:58:58.802Z,93.10
2018-03-27T23:01:26.334Z,92.68
2018-03-27T23:03:53.809Z,92.63
2018-03-27T23:06:21.323Z,93.38
2018-03-27T23:08:48.757Z,93.05
2018-03-27T23:11:16.257Z,93.06
2018-03-27T23:13:43.874Z,93.43
2018-03-27T23:16:11.313Z,93.72
2018-03-27T23:18:38.761Z,93.43
2018-03-27T23:21:06.221Z,93.98
2018-03-27T23:23:33.654Z,93.27
2018-03-27T23:26:01.089Z,93.66
2018-03-27T23:28:28.707Z,94.11
2018-03-27T23:30:56.153Z,93.37
2018-03-27T23:33:23.609Z,94.63
2018-03-27T23:35:51.085Z,94.51
2018-03-27T23:38:18.539Z,94.13
2018-03-27T23:40:46.265Z,94.59
2018-03-27T23:43:13.778Z,95.82
2018-03-27T23:45:41.326Z,95.52
2018-03-27T23:48:08.795Z,95.35
2018-03-27T23:50:36.238Z,94.95
2018-03-27T23:53:03.901Z,95.27
2018-03-27T23:55:31.337Z,95.03
2018-03-27T23:57:58.781Z,94.94
